sensor_id;sensor_type;location;lat;lon;timestamp;temperature;humidity
22436;DHT22;11385;50.822;4.324;2023-11-21T00:01:55;10.50;99.90
22436;DHT22;11385;50.822;4.324;2023-11-21T00:04:23;10.50;99.90
22436;DHT22;11385;50.822;4.324;2023-11-21T00:06:50;10.50;99.90
22436;DHT22;11385;50.822;4.324;2023-11-21T00:09:17;10.50;99.90
22436;DHT22;11385;50.822;4.324;2023-11-21T00:11:45;10.50;99.90
22436;DHT22;11385;50.822;4.324;2023-11-21T00:14:12;10.50;99.90
22436;DHT22;11385;50.822;4.324;2023-11-21T00:16:40;10.50;99.90
22436;DHT22;11385;50.822;4.324;2023-11-21T00:19:07;10.40;99.90
22436;DHT22;11385;50.822;4.324;2023-11-21T00:21:34;10.40;99.90
22436;DHT22;11385;50.822;4.324;2023-11-21T00:24:01;10.40;99.90
22436;DHT22;11385;50.822;4.324;2023-11-21T00:26:27;10.40;99.90
22436;DHT22;11385;50.822;4.324;2023-11-21T00:28:54;10.40;99.90
22436;DHT22;11385;50.822;4.324;2023-11-21T00:31:20;10.40;99.90
22436;DHT22;11385;50.822;4.324;2023-11-21T00:33:48;10.30;99.90
22436;DHT22;11385;50.822;4.324;2023-11-21T00:36:14;10.30;99.90
22436;DHT22;11385;50.822;4.324;2023-11-21T00:38:42;10.10;99.90
22436;DHT22;11385;50.822;4.324;2023-11-21T00:41:10;10.10;99.90
22436;DHT22;11385;50.822;4.324;2023-11-21T00:43:37;10.10;99.90
22436;DHT22;11385;50.822;4.324;2023-11-21T00:46:05;9.90;99.90
22436;DHT22;11385;50.822;4.324;2023-11-21T00:48:33;9.90;99.90
22436;DHT22;11385;50.822;4.324;2023-11-21T00:51:00;9.80;99.90
22436;DHT22;11385;50.822;4.324;2023-11-21T00:53:27;9.90;99.90
22436;DHT22;11385;50.822;4.324;2023-11-21T00:55:54;9.90;99.90
22436;DHT22;11385;50.822;4.324;2023-11-21T00:58:23;9.80;99.90
22436;DHT22;11385;50.822;4.324;2023-11-21T01:00:50;9.70;99.90
22436;DHT22;11385;50.822;4.324;2023-11-21T01:03:17;9.70;99.90
22436;DHT22;11385;50.822;4.324;2023-11-21T01:05:44;9.80;99.90
22436;DHT22;11385;50.822;4.324;2023-11-21T01:08:11;9.80;99.90
22436;DHT22;11385;50.822;4.324;2023-11-21T01:10:38;9.90;99.90
22436;DHT22;11385;50.822;4.324;2023-11-21T01:13:04;10.00;99.90
22436;DHT22;11385;50.822;4.324;2023-11-21T01:15:31;9.90;99.90
22436;DHT22;11385;50.822;4.324;2023-11-21T01:17:58;9.90;99.90
22436;DHT22;11385;50.822;4.324;2023-11-21T01:20:24;9.90;99.90
22436;DHT22;11385;50.822;4.324;2023-11-21T01:22:52;9.90;99.90
22436;DHT22;11385;50.822;4.324;2023-11-21T01:25:20;10.00;99.90
22436;DHT22;11385;50.822;4.324;2023-11-21T01:27:47;10.10;99.90
22436;DHT22;11385;50.822;4.324;2023-11-21T01:30:13;10.20;99.90
22436;DHT22;11385;50.822;4.324;2023-11-21T01:32:40;10.20;99.90
22436;DHT22;11385;50.822;4.324;2023-11-21T01:35:07;10.20;99.90
22436;DHT22;11385;50.822;4.324;2023-11-21T01:37:36;10.10;99.90
22436;DHT22;11385;50.822;4.324;2023-11-21T01:40:04;10.20;99.90
22436;DHT22;11385;50.822;4.324;2023-11-21T01:42:34;10.30;99.90
22436;DHT22;11385;50.822;4.324;2023-11-21T01:45:01;10.40;99.90
22436;DHT22;11385;50.822;4.324;2023-11-21T01:47:33;10.30;99.90
22436;DHT22;11385;50.822;4.324;2023-11-21T01:50:02;10.40;99.90
22436;DHT22;11385;50.822;4.324;2023-11-21T01:52:30;10.30;99.90
22436;DHT22;11385;50.822;4.324;2023-11-21T01:54:59;10.40;99.90
22436;DHT22;11385;50.822;4.324;2023-11-21T01:57:26;10.40;99.90
22436;DHT22;11385;50.822;4.324;2023-11-21T01:59:54;10.40;99.90
22436;DHT22;11385;50.822;4.324;2023-11-21T02:02:21;10.40;99.90
22436;DHT22;11385;50.822;4.324;2023-11-21T02:04:47;10.40;99.90
22436;DHT22;11385;50.822;4.324;2023-11-21T02:07:15;10.30;99.90
22436;DHT22;11385;50.822;4.324;2023-11-21T02:09:41;10.30;99.90
22436;DHT22;11385;50.822;4.324;2023-11-21T02:12:08;10.20;99.90
22436;DHT22;11385;50.822;4.324;2023-11-21T02:14:36;10.10;99.90
22436;DHT22;11385;50.822;4.324;2023-11-21T02:17:03;10.10;99.90
22436;DHT22;11385;50.822;4.324;2023-11-21T02:19:30;10.10;99.90
22436;DHT22;11385;50.822;4.324;2023-11-21T02:21:59;10.10;99.90
22436;DHT22;11385;50.822;4.324;2023-11-21T02:24:29;10.20;99.90
22436;DHT22;11385;50.822;4.324;2023-11-21T02:26:56;10.30;99.90
22436;DHT22;11385;50.822;4.324;2023-11-21T02:29:23;10.20;99.90
22436;DHT22;11385;50.822;4.324;2023-11-21T02:31:52;10.20;99.90
22436;DHT22;11385;50.822;4.324;2023-11-21T02:34:22;10.20;99.90
22436;DHT22;11385;50.822;4.324;2023-11-21T02:36:48;10.20;99.90
22436;DHT22;11385;50.822;4.324;2023-11-21T02:39:17;10.20;99.90
22436;DHT22;11385;50.822;4.324;2023-11-21T02:41:46;10.30;99.90
22436;DHT22;11385;50.822;4.324;2023-11-21T02:44:13;10.20;99.90
22436;DHT22;11385;50.822;4.324;2023-11-21T02:46:39;10.20;99.90
22436;DHT22;11385;50.822;4.324;2023-11-21T02:49:06;10.20;99.90
22436;DHT22;11385;50.822;4.324;2023-11-21T02:51:33;10.10;99.90
22436;DHT22;11385;50.822;4.324;2023-11-21T02:54:01;9.90;99.90
22436;DHT22;11385;50.822;4.324;2023-11-21T02:56:30;9.90;99.90
22436;DHT22;11385;50.822;4.324;2023-11-21T02:58:57;9.80;99.90
22436;DHT22;11385;50.822;4.324;2023-11-21T03:01:23;9.80;99.90
22436;DHT22;11385;50.822;4.324;2023-11-21T03:03:50;9.70;99.90
22436;DHT22;11385;50.822;4.324;2023-11-21T03:06:19;9.80;99.90
22436;DHT22;11385;50.822;4.324;2023-11-21T03:08:46;9.80;99.90
22436;DHT22;11385;50.822;4.324;2023-11-21T03:11:13;9.90;99.90
22436;DHT22;11385;50.822;4.324;2023-11-21T03:13:40;9.90;99.90
22436;DHT22;11385;50.822;4.324;2023-11-21T03:16:09;9.90;99.90
22436;DHT22;11385;50.822;4.324;2023-11-21T03:18:37;10.10;99.90
22436;DHT22;11385;50.822;4.324;2023-11-21T03:21:04;10.10;99.90
22436;DHT22;11385;50.822;4.324;2023-11-21T03:23:31;10.10;99.90
22436;DHT22;11385;50.822;4.324;2023-11-21T03:25:58;10.00;99.90
22436;DHT22;11385;50.822;4.324;2023-11-21T03:28:26;10.10;99.90
22436;DHT22;11385;50.822;4.324;2023-11-21T03:30:54;10.00;99.90
22436;DHT22;11385;50.822;4.324;2023-11-21T03:33:21;10.10;99.90
22436;DHT22;11385;50.822;4.324;2023-11-21T03:35:48;10.10;99.90
22436;DHT22;11385;50.822;4.324;2023-11-21T03:38:15;10.10;99.90
22436;DHT22;11385;50.822;4.324;2023-11-21T03:40:42;10.10;99.90
22436;DHT22;11385;50.822;4.324;2023-11-21T03:43:09;10.10;99.90
22436;DHT22;11385;50.822;4.324;2023-11-21T03:45:35;10.10;99.90
22436;DHT22;11385;50.822;4.324;2023-11-21T03:48:02;10.10;99.90
22436;DHT22;11385;50.822;4.324;2023-11-21T03:50:29;10.10;99.90
22436;DHT22;11385;50.822;4.324;2023-11-21T03:52:56;10.20;99.90
22436;DHT22;11385;50.822;4.324;2023-11-21T03:55:22;10.20;99.90
22436;DHT22;11385;50.822;4.324;2023-11-21T03:57:51;10.20;99.90
22436;DHT22;11385;50.822;4.324;2023-11-21T04:00:18;10.20;99.90
22436;DHT22;11385;50.822;4.324;2023-11-21T04:02:46;10.20;99.90
22436;DHT22;11385;50.822;4.324;2023-11-21T04:05:12;10.30;99.90
22436;DHT22;11385;50.822;4.324;2023-11-21T04:07:39;10.30;99.90
22436;DHT22;11385;50.822;4.324;2023-11-21T04:10:07;10.30;99.90
22436;DHT22;11385;50.822;4.324;2023-11-21T04:12:36;10.30;99.90
22436;DHT22;11385;50.822;4.324;2023-11-21T04:15:03;10.40;99.90
22436;DHT22;11385;50.822;4.324;2023-11-21T04:17:30;10.40;99.90
22436;DHT22;11385;50.822;4.324;2023-11-21T04:19:57;10.30;99.90
22436;DHT22;11385;50.822;4.324;2023-11-21T04:22:23;10.30;99.90
22436;DHT22;11385;50.822;4.324;2023-11-21T04:24:50;10.30;99.90
22436;DHT22;11385;50.822;4.324;2023-11-21T04:27:17;10.30;99.90
22436;DHT22;11385;50.822;4.324;2023-11-21T04:29:44;10.40;99.90
22436;DHT22;11385;50.822;4.324;2023-11-21T04:32:11;10.30;99.90
22436;DHT22;11385;50.822;4.324;2023-11-21T04:34:38;10.40;99.90
22436;DHT22;11385;50.822;4.324;2023-11-21T04:37:05;10.20;99.90
22436;DHT22;11385;50.822;4.324;2023-11-21T04:39:32;10.20;99.90
22436;DHT22;11385;50.822;4.324;2023-11-21T04:41:59;10.20;99.90
22436;DHT22;11385;50.822;4.324;2023-11-21T04:44:25;10.30;99.90
22436;DHT22;11385;50.822;4.324;2023-11-21T04:46:52;10.30;99.90
22436;DHT22;11385;50.822;4.324;2023-11-21T04:49:18;10.30;99.90
22436;DHT22;11385;50.822;4.324;2023-11-21T04:51:45;10.40;99.90
22436;DHT22;11385;50.822;4.324;2023-11-21T04:54:12;10.40;99.90
22436;DHT22;11385;50.822;4.324;2023-11-21T04:56:38;10.30;99.90
22436;DHT22;11385;50.822;4.324;2023-11-21T04:59:05;10.30;99.90
22436;DHT22;11385;50.822;4.324;2023-11-21T05:01:32;10.30;99.90
22436;DHT22;11385;50.822;4.324;2023-11-21T05:03:58;10.30;99.90
22436;DHT22;11385;50.822;4.324;2023-11-21T05:06:25;10.40;99.90
22436;DHT22;11385;50.822;4.324;2023-11-21T05:08:51;10.30;99.90
22436;DHT22;11385;50.822;4.324;2023-11-21T05:11:25;10.20;99.90
22436;DHT22;11385;50.822;4.324;2023-11-21T05:13:52;10.30;99.90
22436;DHT22;11385;50.822;4.324;2023-11-21T05:16:19;10.30;99.90
22436;DHT22;11385;50.822;4.324;2023-11-21T05:18:46;10.30;99.90
22436;DHT22;11385;50.822;4.324;2023-11-21T05:21:12;10.40;99.90
22436;DHT22;11385;50.822;4.324;2023-11-21T05:23:39;10.50;99.90
22436;DHT22;11385;50.822;4.324;2023-11-21T05:26:06;10.40;99.90
22436;DHT22;11385;50.822;4.324;2023-11-21T05:28:33;10.40;99.90
22436;DHT22;11385;50.822;4.324;2023-11-21T05:31:00;10.40;99.90
22436;DHT22;11385;50.822;4.324;2023-11-21T05:33:27;10.40;99.90
22436;DHT22;11385;50.822;4.324;2023-11-21T05:35:54;10.40;99.90
22436;DHT22;11385;50.822;4.324;2023-11-21T05:38:20;10.40;99.90
22436;DHT22;11385;50.822;4.324;2023-11-21T05:40:47;10.50;99.90
22436;DHT22;11385;50.822;4.324;2023-11-21T05:43:14;10.60;99.90
22436;DHT22;11385;50.822;4.324;2023-11-21T05:45:41;10.50;99.90
22436;DHT22;11385;50.822;4.324;2023-11-21T05:48:08;10.50;99.90
22436;DHT22;11385;50.822;4.324;2023-11-21T05:50:34;10.60;99.90
22436;DHT22;11385;50.822;4.324;2023-11-21T05:53:01;10.60;99.90
22436;DHT22;11385;50.822;4.324;2023-11-21T05:55:28;10.50;99.90
22436;DHT22;11385;50.822;4.324;2023-11-21T05:57:55;10.60;99.90
22436;DHT22;11385;50.822;4.324;2023-11-21T06:00:22;10.60;99.90
22436;DHT22;11385;50.822;4.324;2023-11-21T06:02:49;10.60;99.90
22436;DHT22;11385;50.822;4.324;2023-11-21T06:05:19;10.60;99.90
22436;DHT22;11385;50.822;4.324;2023-11-21T06:07:49;10.60;99.90
22436;DHT22;11385;50.822;4.324;2023-11-21T06:10:15;10.60;99.90
22436;DHT22;11385;50.822;4.324;2023-11-21T06:12:43;10.60;99.90
22436;DHT22;11385;50.822;4.324;2023-11-21T06:15:11;10.60;99.90
22436;DHT22;11385;50.822;4.324;2023-11-21T06:17:40;10.60;99.90
22436;DHT22;11385;50.822;4.324;2023-11-21T06:20:09;10.50;99.90
22436;DHT22;11385;50.822;4.324;2023-11-21T06:22:39;10.40;99.90
22436;DHT22;11385;50.822;4.324;2023-11-21T06:25:07;10.40;99.90
22436;DHT22;11385;50.822;4.324;2023-11-21T06:27:38;10.40;99.90
22436;DHT22;11385;50.822;4.324;2023-11-21T06:30:05;10.50;99.90
22436;DHT22;11385;50.822;4.324;2023-11-21T06:32:33;10.40;99.90
22436;DHT22;11385;50.822;4.324;2023-11-21T06:35:00;10.40;99.90
22436;DHT22;11385;50.822;4.324;2023-11-21T06:37:28;10.40;99.90
22436;DHT22;11385;50.822;4.324;2023-11-21T06:39:55;10.40;99.90
22436;DHT22;11385;50.822;4.324;2023-11-21T06:42:22;10.50;99.90
22436;DHT22;11385;50.822;4.324;2023-11-21T06:44:50;10.50;99.90
22436;DHT22;11385;50.822;4.324;2023-11-21T06:47:18;10.50;99.90
22436;DHT22;11385;50.822;4.324;2023-11-21T06:49:46;10.40;99.90
22436;DHT22;11385;50.822;4.324;2023-11-21T06:52:14;10.50;99.90
22436;DHT22;11385;50.822;4.324;2023-11-21T06:54:40;10.50;99.90
22436;DHT22;11385;50.822;4.324;2023-11-21T06:57:07;10.60;99.90
22436;DHT22;11385;50.822;4.324;2023-11-21T06:59:34;10.50;99.90
22436;DHT22;11385;50.822;4.324;2023-11-21T07:02:01;10.60;99.90
22436;DHT22;11385;50.822;4.324;2023-11-21T07:04:27;10.50;99.90
22436;DHT22;11385;50.822;4.324;2023-11-21T07:06:54;10.50;99.90
22436;DHT22;11385;50.822;4.324;2023-11-21T07:09:21;10.40;99.90
22436;DHT22;11385;50.822;4.324;2023-11-21T07:11:48;10.30;99.90
22436;DHT22;11385;50.822;4.324;2023-11-21T07:14:15;10.30;99.90
22436;DHT22;11385;50.822;4.324;2023-11-21T07:16:43;10.40;99.90
22436;DHT22;11385;50.822;4.324;2023-11-21T07:19:09;10.30;99.90
22436;DHT22;11385;50.822;4.324;2023-11-21T07:21:36;10.30;99.90
22436;DHT22;11385;50.822;4.324;2023-11-21T07:24:03;10.50;99.90
22436;DHT22;11385;50.822;4.324;2023-11-21T07:26:30;10.50;99.90
22436;DHT22;11385;50.822;4.324;2023-11-21T07:28:57;10.60;99.90
22436;DHT22;11385;50.822;4.324;2023-11-21T07:31:23;10.40;99.90
22436;DHT22;11385;50.822;4.324;2023-11-21T07:33:50;10.30;99.90
22436;DHT22;11385;50.822;4.324;2023-11-21T07:36:17;10.40;99.90
22436;DHT22;11385;50.822;4.324;2023-11-21T07:38:44;10.40;99.90
22436;DHT22;11385;50.822;4.324;2023-11-21T07:41:11;10.40;99.90
22436;DHT22;11385;50.822;4.324;2023-11-21T07:43:40;10.50;99.90
22436;DHT22;11385;50.822;4.324;2023-11-21T07:46:06;10.50;99.90
22436;DHT22;11385;50.822;4.324;2023-11-21T07:48:34;10.60;99.90
22436;DHT22;11385;50.822;4.324;2023-11-21T07:51:02;10.50;99.90
22436;DHT22;11385;50.822;4.324;2023-11-21T07:53:31;10.60;99.90
22436;DHT22;11385;50.822;4.324;2023-11-21T07:56:02;10.60;99.90
22436;DHT22;11385;50.822;4.324;2023-11-21T07:58:29;10.60;99.90
22436;DHT22;11385;50.822;4.324;2023-11-21T08:00:56;10.80;99.90
22436;DHT22;11385;50.822;4.324;2023-11-21T08:03:23;10.80;99.90
22436;DHT22;11385;50.822;4.324;2023-11-21T08:05:50;10.70;99.90
22436;DHT22;11385;50.822;4.324;2023-11-21T08:08:16;10.70;99.90
22436;DHT22;11385;50.822;4.324;2023-11-21T08:10:45;10.60;99.90
22436;DHT22;11385;50.822;4.324;2023-11-21T08:13:15;10.60;99.90
22436;DHT22;11385;50.822;4.324;2023-11-21T08:15:43;10.70;99.90
22436;DHT22;11385;50.822;4.324;2023-11-21T08:18:12;10.70;99.90
22436;DHT22;11385;50.822;4.324;2023-11-21T08:20:40;10.70;99.90
22436;DHT22;11385;50.822;4.324;2023-11-21T08:23:07;10.70;99.90
22436;DHT22;11385;50.822;4.324;2023-11-21T08:25:34;10.70;99.90
22436;DHT22;11385;50.822;4.324;2023-11-21T08:28:01;10.80;99.90
22436;DHT22;11385;50.822;4.324;2023-11-21T08:30:27;10.80;99.90
22436;DHT22;11385;50.822;4.324;2023-11-21T08:32:56;10.80;99.90
22436;DHT22;11385;50.822;4.324;2023-11-21T08:35:24;10.80;99.90
22436;DHT22;11385;50.822;4.324;2023-11-21T08:37:52;10.90;99.90
22436;DHT22;11385;50.822;4.324;2023-11-21T08:40:20;10.90;99.90
22436;DHT22;11385;50.822;4.324;2023-11-21T08:42:47;11.00;99.90
22436;DHT22;11385;50.822;4.324;2023-11-21T08:45:16;11.00;99.90
22436;DHT22;11385;50.822;4.324;2023-11-21T08:47:43;11.00;99.90
22436;DHT22;11385;50.822;4.324;2023-11-21T08:50:11;11.00;99.90
22436;DHT22;11385;50.822;4.324;2023-11-21T08:52:39;10.90;99.90
22436;DHT22;11385;50.822;4.324;2023-11-21T08:55:07;11.00;99.90
22436;DHT22;11385;50.822;4.324;2023-11-21T08:57:36;11.00;99.90
22436;DHT22;11385;50.822;4.324;2023-11-21T09:00:04;11.10;99.90
22436;DHT22;11385;50.822;4.324;2023-11-21T09:02:33;11.10;99.90
22436;DHT22;11385;50.822;4.324;2023-11-21T09:05:00;11.20;99.90
22436;DHT22;11385;50.822;4.324;2023-11-21T09:07:29;11.20;99.90
22436;DHT22;11385;50.822;4.324;2023-11-21T09:09:56;11.30;99.90
22436;DHT22;11385;50.822;4.324;2023-11-21T09:12:24;11.30;99.90
22436;DHT22;11385;50.822;4.324;2023-11-21T09:14:51;11.40;99.90
22436;DHT22;11385;50.822;4.324;2023-11-21T09:17:17;11.30;99.90
22436;DHT22;11385;50.822;4.324;2023-11-21T09:19:45;11.20;99.90
22436;DHT22;11385;50.822;4.324;2023-11-21T09:22:15;11.30;99.90
22436;DHT22;11385;50.822;4.324;2023-11-21T09:24:42;11.30;99.90
22436;DHT22;11385;50.822;4.324;2023-11-21T09:27:09;11.50;99.90
22436;DHT22;11385;50.822;4.324;2023-11-21T09:29:36;11.60;99.90
22436;DHT22;11385;50.822;4.324;2023-11-21T09:32:06;11.80;99.90
22436;DHT22;11385;50.822;4.324;2023-11-21T09:34:35;11.70;99.90
22436;DHT22;11385;50.822;4.324;2023-11-21T09:37:05;11.70;99.90
22436;DHT22;11385;50.822;4.324;2023-11-21T09:39:33;11.70;99.90
22436;DHT22;11385;50.822;4.324;2023-11-21T09:42:11;11.60;99.90
22436;DHT22;11385;50.822;4.324;2023-11-21T09:45:00;11.50;99.90
22436;DHT22;11385;50.822;4.324;2023-11-21T09:47:27;11.50;99.90
22436;DHT22;11385;50.822;4.324;2023-11-21T09:49:54;11.50;99.90
22436;DHT22;11385;50.822;4.324;2023-11-21T09:52:25;11.50;99.90
22436;DHT22;11385;50.822;4.324;2023-11-21T09:54:53;11.40;99.90
22436;DHT22;11385;50.822;4.324;2023-11-21T09:57:20;11.50;99.90
22436;DHT22;11385;50.822;4.324;2023-11-21T09:59:51;11.60;99.90
22436;DHT22;11385;50.822;4.324;2023-11-21T10:02:26;11.70;99.90
22436;DHT22;11385;50.822;4.324;2023-11-21T10:04:55;11.90;99.90
22436;DHT22;11385;50.822;4.324;2023-11-21T10:10:20;11.80;99.90
22436;DHT22;11385;50.822;4.324;2023-11-21T10:12:50;11.70;99.90
22436;DHT22;11385;50.822;4.324;2023-11-21T10:15:21;11.70;99.90
22436;DHT22;11385;50.822;4.324;2023-11-21T10:17:49;11.50;99.90
22436;DHT22;11385;50.822;4.324;2023-11-21T10:20:16;11.60;99.90
22436;DHT22;11385;50.822;4.324;2023-11-21T10:22:43;11.60;99.90
22436;DHT22;11385;50.822;4.324;2023-11-21T10:25:10;11.70;99.90
22436;DHT22;11385;50.822;4.324;2023-11-21T10:27:39;11.90;99.90
22436;DHT22;11385;50.822;4.324;2023-11-21T10:30:08;11.60;99.90
22436;DHT22;11385;50.822;4.324;2023-11-21T10:32:36;11.70;99.90
22436;DHT22;11385;50.822;4.324;2023-11-21T10:35:03;11.80;99.90
22436;DHT22;11385;50.822;4.324;2023-11-21T10:37:32;11.80;99.90
22436;DHT22;11385;50.822;4.324;2023-11-21T10:39:59;11.90;99.90
22436;DHT22;11385;50.822;4.324;2023-11-21T10:42:26;12.00;99.90
22436;DHT22;11385;50.822;4.324;2023-11-21T10:44:54;12.30;99.90
22436;DHT22;11385;50.822;4.324;2023-11-21T10:47:21;12.20;99.90
22436;DHT22;11385;50.822;4.324;2023-11-21T10:49:49;12.10;99.90
22436;DHT22;11385;50.822;4.324;2023-11-21T10:52:16;12.20;99.90
22436;DHT22;11385;50.822;4.324;2023-11-21T10:54:44;12.20;99.90
22436;DHT22;11385;50.822;4.324;2023-11-21T10:57:13;12.20;99.90
22436;DHT22;11385;50.822;4.324;2023-11-21T10:59:41;12.30;99.90
22436;DHT22;11385;50.822;4.324;2023-11-21T11:02:26;12.40;99.90
22436;DHT22;11385;50.822;4.324;2023-11-21T11:04:54;12.60;99.90
22436;DHT22;11385;50.822;4.324;2023-11-21T11:07:26;12.80;99.90
22436;DHT22;11385;50.822;4.324;2023-11-21T11:09:54;12.80;99.90
22436;DHT22;11385;50.822;4.324;2023-11-21T11:12:21;12.90;99.90
22436;DHT22;11385;50.822;4.324;2023-11-21T11:14:48;13.10;99.90
22436;DHT22;11385;50.822;4.324;2023-11-21T11:17:15;13.00;99.90
22436;DHT22;11385;50.822;4.324;2023-11-21T11:19:42;12.90;99.90
22436;DHT22;11385;50.822;4.324;2023-11-21T11:22:30;12.80;99.90
22436;DHT22;11385;50.822;4.324;2023-11-21T11:25:21;12.50;99.90
22436;DHT22;11385;50.822;4.324;2023-11-21T11:27:54;12.30;99.90
22436;DHT22;11385;50.822;4.324;2023-11-21T11:33:42;12.20;99.90
22436;DHT22;11385;50.822;4.324;2023-11-21T11:36:17;12.40;99.90
22436;DHT22;11385;50.822;4.324;2023-11-21T11:38:45;12.60;99.90
22436;DHT22;11385;50.822;4.324;2023-11-21T11:41:12;12.70;99.90
22436;DHT22;11385;50.822;4.324;2023-11-21T11:43:39;12.50;99.90
22436;DHT22;11385;50.822;4.324;2023-11-21T11:46:07;12.30;99.90
22436;DHT22;11385;50.822;4.324;2023-11-21T11:48:38;12.10;99.90
22436;DHT22;11385;50.822;4.324;2023-11-21T11:51:11;12.10;99.90
22436;DHT22;11385;50.822;4.324;2023-11-21T11:53:41;12.10;99.90
22436;DHT22;11385;50.822;4.324;2023-11-21T11:59:04;11.80;99.90
22436;DHT22;11385;50.822;4.324;2023-11-21T12:01:34;11.80;99.90
22436;DHT22;11385;50.822;4.324;2023-11-21T12:06:55;12.00;99.90
22436;DHT22;11385;50.822;4.324;2023-11-21T12:09:23;12.10;99.90
22436;DHT22;11385;50.822;4.324;2023-11-21T12:11:50;12.10;99.90
22436;DHT22;11385;50.822;4.324;2023-11-21T12:14:17;12.00;99.90
22436;DHT22;11385;50.822;4.324;2023-11-21T12:16:44;11.90;99.90
22436;DHT22;11385;50.822;4.324;2023-11-21T12:19:12;11.90;99.90
22436;DHT22;11385;50.822;4.324;2023-11-21T12:21:39;11.80;99.90
22436;DHT22;11385;50.822;4.324;2023-11-21T12:24:07;11.70;99.90
22436;DHT22;11385;50.822;4.324;2023-11-21T12:26:35;11.80;99.90
22436;DHT22;11385;50.822;4.324;2023-11-21T12:29:03;11.90;99.90
22436;DHT22;11385;50.822;4.324;2023-11-21T12:31:31;11.80;99.90
22436;DHT22;11385;50.822;4.324;2023-11-21T12:33:58;11.80;99.90
22436;DHT22;11385;50.822;4.324;2023-11-21T12:36:25;11.80;99.90
22436;DHT22;11385;50.822;4.324;2023-11-21T12:38:52;11.70;99.90
22436;DHT22;11385;50.822;4.324;2023-11-21T12:41:18;11.90;99.90
22436;DHT22;11385;50.822;4.324;2023-11-21T12:43:47;11.90;99.90
22436;DHT22;11385;50.822;4.324;2023-11-21T12:46:14;11.90;99.90
22436;DHT22;11385;50.822;4.324;2023-11-21T12:48:41;11.90;99.90
22436;DHT22;11385;50.822;4.324;2023-11-21T12:51:10;11.80;99.90
22436;DHT22;11385;50.822;4.324;2023-11-21T12:53:38;11.80;99.90
22436;DHT22;11385;50.822;4.324;2023-11-21T12:56:10;11.80;99.90
22436;DHT22;11385;50.822;4.324;2023-11-21T12:58:38;11.90;99.90
22436;DHT22;11385;50.822;4.324;2023-11-21T13:01:07;12.00;99.90
22436;DHT22;11385;50.822;4.324;2023-11-21T13:03:38;11.80;99.90
22436;DHT22;11385;50.822;4.324;2023-11-21T13:06:06;11.80;99.90
22436;DHT22;11385;50.822;4.324;2023-11-21T13:08:34;11.70;99.90
22436;DHT22;11385;50.822;4.324;2023-11-21T13:11:01;11.70;99.90
22436;DHT22;11385;50.822;4.324;2023-11-21T13:13:29;11.70;99.90
22436;DHT22;11385;50.822;4.324;2023-11-21T13:15:59;11.80;99.90
22436;DHT22;11385;50.822;4.324;2023-11-21T13:18:29;12.00;99.90
22436;DHT22;11385;50.822;4.324;2023-11-21T13:20:59;12.00;99.90
22436;DHT22;11385;50.822;4.324;2023-11-21T13:23:26;12.20;99.90
22436;DHT22;11385;50.822;4.324;2023-11-21T13:25:55;12.10;99.90
22436;DHT22;11385;50.822;4.324;2023-11-21T13:28:22;12.20;99.90
22436;DHT22;11385;50.822;4.324;2023-11-21T13:30:50;12.20;99.90
22436;DHT22;11385;50.822;4.324;2023-11-21T13:33:19;12.10;99.90
22436;DHT22;11385;50.822;4.324;2023-11-21T13:35:48;12.10;99.90
22436;DHT22;11385;50.822;4.324;2023-11-21T13:38:17;12.10;99.90
22436;DHT22;11385;50.822;4.324;2023-11-21T13:40:48;12.10;99.90
22436;DHT22;11385;50.822;4.324;2023-11-21T13:43:17;12.10;99.90
22436;DHT22;11385;50.822;4.324;2023-11-21T13:45:47;12.10;99.90
22436;DHT22;11385;50.822;4.324;2023-11-21T13:48:16;12.10;99.90
22436;DHT22;11385;50.822;4.324;2023-11-21T13:50:46;12.00;99.90
22436;DHT22;11385;50.822;4.324;2023-11-21T13:53:18;12.00;99.90
22436;DHT22;11385;50.822;4.324;2023-11-21T13:55:48;11.90;99.90
22436;DHT22;11385;50.822;4.324;2023-11-21T13:58:16;11.80;99.90
22436;DHT22;11385;50.822;4.324;2023-11-21T14:00:46;11.80;99.90
22436;DHT22;11385;50.822;4.324;2023-11-21T14:03:14;11.90;99.90
22436;DHT22;11385;50.822;4.324;2023-11-21T14:05:48;11.90;99.90
22436;DHT22;11385;50.822;4.324;2023-11-21T14:08:20;11.90;99.90
22436;DHT22;11385;50.822;4.324;2023-11-21T14:10:47;11.80;99.90
22436;DHT22;11385;50.822;4.324;2023-11-21T14:13:19;11.80;99.90
22436;DHT22;11385;50.822;4.324;2023-11-21T14:15:48;11.70;99.90
22436;DHT22;11385;50.822;4.324;2023-11-21T14:18:17;11.70;99.90
22436;DHT22;11385;50.822;4.324;2023-11-21T14:20:46;11.70;99.90
22436;DHT22;11385;50.822;4.324;2023-11-21T14:23:13;11.70;99.90
22436;DHT22;11385;50.822;4.324;2023-11-21T14:25:40;11.60;99.90
22436;DHT22;11385;50.822;4.324;2023-11-21T14:28:08;11.70;99.90
22436;DHT22;11385;50.822;4.324;2023-11-21T14:30:37;11.60;99.90
22436;DHT22;11385;50.822;4.324;2023-11-21T14:33:05;11.70;99.90
22436;DHT22;11385;50.822;4.324;2023-11-21T14:35:34;11.70;99.90
22436;DHT22;11385;50.822;4.324;2023-11-21T14:38:01;11.70;99.90
22436;DHT22;11385;50.822;4.324;2023-11-21T14:40:30;11.70;99.90
22436;DHT22;11385;50.822;4.324;2023-11-21T14:43:00;11.70;99.90
22436;DHT22;11385;50.822;4.324;2023-11-21T14:45:27;11.70;99.90
22436;DHT22;11385;50.822;4.324;2023-11-21T14:47:55;11.70;99.90
22436;DHT22;11385;50.822;4.324;2023-11-21T14:50:24;11.70;99.90
22436;DHT22;11385;50.822;4.324;2023-11-21T14:53:11;11.80;99.90
22436;DHT22;11385;50.822;4.324;2023-11-21T14:55:39;11.80;99.90
22436;DHT22;11385;50.822;4.324;2023-11-21T14:58:23;11.80;99.90
22436;DHT22;11385;50.822;4.324;2023-11-21T15:00:56;11.80;99.90
22436;DHT22;11385;50.822;4.324;2023-11-21T15:03:25;11.80;99.90
22436;DHT22;11385;50.822;4.324;2023-11-21T15:05:54;11.80;99.90
22436;DHT22;11385;50.822;4.324;2023-11-21T15:08:21;11.60;99.90
22436;DHT22;11385;50.822;4.324;2023-11-21T15:10:50;11.60;99.90
22436;DHT22;11385;50.822;4.324;2023-11-21T15:13:19;11.70;99.90
22436;DHT22;11385;50.822;4.324;2023-11-21T15:15:47;11.60;99.90
22436;DHT22;11385;50.822;4.324;2023-11-21T15:18:14;11.50;99.90
22436;DHT22;11385;50.822;4.324;2023-11-21T15:20:41;11.50;99.90
22436;DHT22;11385;50.822;4.324;2023-11-21T15:23:09;11.40;99.90
22436;DHT22;11385;50.822;4.324;2023-11-21T15:25:36;11.40;99.90
22436;DHT22;11385;50.822;4.324;2023-11-21T15:28:02;11.50;99.90
22436;DHT22;11385;50.822;4.324;2023-11-21T15:30:31;11.60;99.90
22436;DHT22;11385;50.822;4.324;2023-11-21T15:32:59;11.60;99.90
22436;DHT22;11385;50.822;4.324;2023-11-21T15:35:26;11.60;99.90
22436;DHT22;11385;50.822;4.324;2023-11-21T15:37:54;11.60;99.90
22436;DHT22;11385;50.822;4.324;2023-11-21T15:40:23;11.60;99.90
22436;DHT22;11385;50.822;4.324;2023-11-21T15:42:51;11.60;99.90
22436;DHT22;11385;50.822;4.324;2023-11-21T15:45:18;11.70;99.90
22436;DHT22;11385;50.822;4.324;2023-11-21T15:47:47;11.60;99.90
22436;DHT22;11385;50.822;4.324;2023-11-21T15:50:13;11.60;99.90